Accueil
METAR-TAF:

METAR-TAF

Aéroports :

Auckland, Nouvelle-Zélande

Aéroport d'Auckland

latitude: 37-01S, longitude: 174-48E, altitude: 7 m

Observation

Le bulletin a été fait il y a 31 minutes, à 12:00 UTC
Vent 5 kt de nord/nord-ouest, variant entre ouest/nord-ouest et nord
Température 12°C
Humidité 82%
Pression 1022 hPa
Visibilité 10 km ou plus

METAR: NZAA 231200Z AUTO 34005KT 300V010 9999 FEW065/// 12/09 Q1022 NOSIG

Heure: 00:31 (12:31 UTC)

Prévision

Le bulletin a été fait il y a 1 heure et 12 minutes, à 11:19 UTC
Prévision valable du 23 à 12 UTC au 24 à 12 UTC
Vent 8 kt de nord-ouest
Visibilité 10 km ou plus
Nuages fragmentés à une hauteur de 2500 ft
faibles averses de pluie
Temporairement
du 23 à 22 UTC au 24 à 06 UTC
Visibilité: 6000 m
averses de pluie

TAF: NZAA 231119Z 2312/2412 32008KT 9999 -SHRA BKN025 TEMPO 2322/2406 6000 SHRA

Observations et prévisions météorologiques de plus de 4000 aéroports (messages METAR et TAF).

Les stations disponibles sont représentées par des disques jaunes et rouges sur la carte.

Passer la souris dessus pour voir le nom de la station.

Cliquer dessus pour voir les observations et prévisions météorologiques.

Pour changer de carte: cliquez sur les boutons verts avec une croix noire pour zoomer, sur le bouton vert avec un tiret pour effectuer un zoom arrière, ou sur les flèches vertes pour les cartes adjacentes.


METAR-TAF: